sensor_id;sensor_type;location;lat;lon;timestamp;pressure;altitude;pressure_sealevel;temperature;humidity
5883;BME280;2967;51.488;6.618;2022-11-15T00:02:23;100645.84;;;10.79;100.00
5883;BME280;2967;51.488;6.618;2022-11-15T00:07:46;100623.63;;;10.81;100.00
5883;BME280;2967;51.488;6.618;2022-11-15T00:13:14;100625.88;;;10.87;100.00
5883;BME280;2967;51.488;6.618;2022-11-15T00:18:36;100631.16;;;10.87;100.00
5883;BME280;2967;51.488;6.618;2022-11-15T00:23:59;100628.41;;;10.89;100.00
5883;BME280;2967;51.488;6.618;2022-11-15T00:29:20;100635.38;;;10.90;100.00
5883;BME280;2967;51.488;6.618;2022-11-15T00:34:43;100632.84;;;11.01;100.00
5883;BME280;2967;51.488;6.618;2022-11-15T00:40:07;100630.09;;;11.02;100.00
5883;BME280;2967;51.488;6.618;2022-11-15T00:45:28;100618.56;;;11.03;100.00
5883;BME280;2967;51.488;6.618;2022-11-15T00:50:49;100622.72;;;11.07;100.00
5883;BME280;2967;51.488;6.618;2022-11-15T00:56:12;100608.38;;;11.10;100.00
5883;BME280;2967;51.488;6.618;2022-11-15T01:01:34;100601.94;;;11.14;100.00
5883;BME280;2967;51.488;6.618;2022-11-15T01:06:55;100603.63;;;11.15;100.00
5883;BME280;2967;51.488;6.618;2022-11-15T01:12:18;100602.44;;;11.19;100.00
5883;BME280;2967;51.488;6.618;2022-11-15T01:17:43;100606.47;;;11.24;100.00
5883;BME280;2967;51.488;6.618;2022-11-15T01:23:05;100605.91;;;11.32;100.00
5883;BME280;2967;51.488;6.618;2022-11-15T01:28:30;100594.19;;;11.36;100.00
5883;BME280;2967;51.488;6.618;2022-11-15T01:33:52;100594.91;;;11.38;100.00
5883;BME280;2967;51.488;6.618;2022-11-15T01:39:13;100591.94;;;11.42;100.00
5883;BME280;2967;51.488;6.618;2022-11-15T01:44:43;100554.22;;;11.39;100.00
5883;BME280;2967;51.488;6.618;2022-11-15T01:50:09;100578.63;;;11.67;100.00
5883;BME280;2967;51.488;6.618;2022-11-15T01:55:31;100569.00;;;11.66;100.00
5883;BME280;2967;51.488;6.618;2022-11-15T02:06:43;100489.25;;;11.22;100.00
5883;BME280;2967;51.488;6.618;2022-11-15T02:12:06;100560.63;;;11.72;100.00
5883;BME280;2967;51.488;6.618;2022-11-15T02:17:42;100554.34;;;11.73;100.00
5883;BME280;2967;51.488;6.618;2022-11-15T02:29:31;100560.06;;;11.80;100.00
5883;BME280;2967;51.488;6.618;2022-11-15T02:35:02;100563.44;;;11.82;100.00
5883;BME280;2967;51.488;6.618;2022-11-15T02:40:35;100561.41;;;11.85;100.00
5883;BME280;2967;51.488;6.618;2022-11-15T02:46:04;100558.75;;;11.85;100.00
5883;BME280;2967;51.488;6.618;2022-11-15T02:51:28;100547.19;;;11.86;100.00
5883;BME280;2967;51.488;6.618;2022-11-15T02:56:50;100547.94;;;11.88;100.00
5883;BME280;2967;51.488;6.618;2022-11-15T03:02:42;100552.16;;;11.91;100.00
5883;BME280;2967;51.488;6.618;2022-11-15T03:08:09;100541.34;;;11.94;100.00
5883;BME280;2967;51.488;6.618;2022-11-15T03:13:36;100512.25;;;11.81;100.00
5883;BME280;2967;51.488;6.618;2022-11-15T03:19:03;100538.94;;;12.02;100.00
5883;BME280;2967;51.488;6.618;2022-11-15T03:24:29;100537.16;;;12.02;100.00
5883;BME280;2967;51.488;6.618;2022-11-15T03:29:55;100537.31;;;12.12;100.00
5883;BME280;2967;51.488;6.618;2022-11-15T03:35:20;100535.28;;;12.15;100.00
5883;BME280;2967;51.488;6.618;2022-11-15T03:40:47;100518.88;;;12.10;100.00
5883;BME280;2967;51.488;6.618;2022-11-15T03:46:14;100520.22;;;12.16;100.00
5883;BME280;2967;51.488;6.618;2022-11-15T03:51:36;100519.34;;;12.15;100.00
5883;BME280;2967;51.488;6.618;2022-11-15T03:56:58;100508.75;;;12.15;100.00
5883;BME280;2967;51.488;6.618;2022-11-15T04:02:20;100504.19;;;12.17;100.00
5883;BME280;2967;51.488;6.618;2022-11-15T04:07:41;100517.50;;;12.28;100.00
5883;BME280;2967;51.488;6.618;2022-11-15T04:13:04;100518.94;;;12.32;100.00
5883;BME280;2967;51.488;6.618;2022-11-15T04:18:25;100530.03;;;12.37;100.00
5883;BME280;2967;51.488;6.618;2022-11-15T04:23:46;100522.94;;;12.38;100.00
5883;BME280;2967;51.488;6.618;2022-11-15T04:29:23;100528.34;;;12.36;100.00
5883;BME280;2967;51.488;6.618;2022-11-15T04:34:56;100524.00;;;12.35;100.00
5883;BME280;2967;51.488;6.618;2022-11-15T04:40:17;100534.59;;;12.35;100.00
5883;BME280;2967;51.488;6.618;2022-11-15T04:45:40;100538.22;;;12.34;100.00
5883;BME280;2967;51.488;6.618;2022-11-15T04:51:01;100527.84;;;12.31;100.00
5883;BME280;2967;51.488;6.618;2022-11-15T04:56:22;100533.50;;;12.27;100.00
5883;BME280;2967;51.488;6.618;2022-11-15T05:01:45;100530.34;;;12.22;100.00
5883;BME280;2967;51.488;6.618;2022-11-15T05:07:06;100523.34;;;12.21;100.00
5883;BME280;2967;51.488;6.618;2022-11-15T05:12:27;100512.63;;;12.22;100.00
5883;BME280;2967;51.488;6.618;2022-11-15T05:17:50;100512.88;;;12.19;100.00
5883;BME280;2967;51.488;6.618;2022-11-15T05:23:11;100513.84;;;12.18;100.00
5883;BME280;2967;51.488;6.618;2022-11-15T05:28:33;100505.13;;;12.16;100.00
5883;BME280;2967;51.488;6.618;2022-11-15T05:33:58;100493.69;;;12.16;100.00
5883;BME280;2967;51.488;6.618;2022-11-15T05:39:21;100499.00;;;12.16;100.00
5883;BME280;2967;51.488;6.618;2022-11-15T05:44:44;100499.09;;;12.14;100.00
5883;BME280;2967;51.488;6.618;2022-11-15T05:50:12;100492.63;;;12.18;100.00
5883;BME280;2967;51.488;6.618;2022-11-15T05:55:33;100497.81;;;12.20;100.00
5883;BME280;2967;51.488;6.618;2022-11-15T06:00:55;100491.31;;;12.24;100.00
5883;BME280;2967;51.488;6.618;2022-11-15T06:06:17;100427.41;;;11.70;100.00
5883;BME280;2967;51.488;6.618;2022-11-15T06:11:38;100502.91;;;12.34;100.00
5883;BME280;2967;51.488;6.618;2022-11-15T06:17:00;100411.19;;;11.86;100.00
5883;BME280;2967;51.488;6.618;2022-11-15T06:22:30;100508.69;;;12.39;100.00
5883;BME280;2967;51.488;6.618;2022-11-15T06:27:52;100506.66;;;12.42;100.00
5883;BME280;2967;51.488;6.618;2022-11-15T06:33:13;100512.69;;;12.44;100.00
5883;BME280;2967;51.488;6.618;2022-11-15T06:38:36;100458.88;;;12.20;100.00
5883;BME280;2967;51.488;6.618;2022-11-15T06:43:58;100502.81;;;12.46;100.00
5883;BME280;2967;51.488;6.618;2022-11-15T06:49:20;100510.53;;;12.49;100.00
5883;BME280;2967;51.488;6.618;2022-11-15T06:54:42;100514.88;;;12.50;100.00
5883;BME280;2967;51.488;6.618;2022-11-15T07:00:04;100517.53;;;12.50;100.00
5883;BME280;2967;51.488;6.618;2022-11-15T07:05:27;100537.69;;;12.53;100.00
5883;BME280;2967;51.488;6.618;2022-11-15T07:10:50;100539.97;;;12.57;100.00
5883;BME280;2967;51.488;6.618;2022-11-15T07:16:12;100542.25;;;12.62;100.00
5883;BME280;2967;51.488;6.618;2022-11-15T07:21:33;100548.44;;;12.62;100.00
5883;BME280;2967;51.488;6.618;2022-11-15T07:26:55;100556.38;;;12.62;100.00
5883;BME280;2967;51.488;6.618;2022-11-15T07:32:16;100562.06;;;12.69;100.00
5883;BME280;2967;51.488;6.618;2022-11-15T07:37:37;100565.59;;;12.69;100.00
5883;BME280;2967;51.488;6.618;2022-11-15T07:43:01;100569.19;;;12.68;100.00
5883;BME280;2967;51.488;6.618;2022-11-15T07:48:22;100580.28;;;12.73;100.00
5883;BME280;2967;51.488;6.618;2022-11-15T07:53:44;100587.53;;;12.71;100.00
5883;BME280;2967;51.488;6.618;2022-11-15T07:59:07;100587.88;;;12.67;100.00
5883;BME280;2967;51.488;6.618;2022-11-15T08:04:28;100597.78;;;12.65;100.00
5883;BME280;2967;51.488;6.618;2022-11-15T08:09:49;100606.19;;;12.59;100.00
5883;BME280;2967;51.488;6.618;2022-11-15T08:15:12;100612.22;;;12.61;100.00
5883;BME280;2967;51.488;6.618;2022-11-15T08:20:33;100612.34;;;12.59;100.00
5883;BME280;2967;51.488;6.618;2022-11-15T08:25:59;100601.47;;;12.51;100.00
5883;BME280;2967;51.488;6.618;2022-11-15T08:31:22;100613.50;;;12.44;100.00
5883;BME280;2967;51.488;6.618;2022-11-15T08:36:43;100612.50;;;12.34;100.00
5883;BME280;2967;51.488;6.618;2022-11-15T08:42:05;100605.34;;;12.24;100.00
5883;BME280;2967;51.488;6.618;2022-11-15T08:47:28;100589.09;;;12.28;100.00
5883;BME280;2967;51.488;6.618;2022-11-15T08:52:49;100577.19;;;12.34;100.00
5883;BME280;2967;51.488;6.618;2022-11-15T08:58:14;100585.53;;;12.40;100.00
5883;BME280;2967;51.488;6.618;2022-11-15T09:03:39;100580.34;;;12.50;100.00
5883;BME280;2967;51.488;6.618;2022-11-15T09:09:00;100574.00;;;12.63;100.00
5883;BME280;2967;51.488;6.618;2022-11-15T09:14:21;100483.94;;;12.27;100.00
5883;BME280;2967;51.488;6.618;2022-11-15T09:19:45;100575.72;;;12.86;100.00
5883;BME280;2967;51.488;6.618;2022-11-15T09:25:06;100577.19;;;12.90;100.00
5883;BME280;2967;51.488;6.618;2022-11-15T09:30:30;100571.56;;;12.95;100.00
5883;BME280;2967;51.488;6.618;2022-11-15T09:35:53;100577.91;;;12.92;100.00
5883;BME280;2967;51.488;6.618;2022-11-15T09:41:41;100556.16;;;12.87;100.00
5883;BME280;2967;51.488;6.618;2022-11-15T09:52:58;100532.06;;;12.79;100.00
5883;BME280;2967;51.488;6.618;2022-11-15T09:58:08;100517.81;;;12.80;100.00
5883;BME280;2967;51.488;6.618;2022-11-15T10:03:14;100524.31;;;12.87;100.00
5883;BME280;2967;51.488;6.618;2022-11-15T10:08:31;100508.63;;;12.84;100.00
5883;BME280;2967;51.488;6.618;2022-11-15T10:13:40;100511.53;;;12.92;100.00
5883;BME280;2967;51.488;6.618;2022-11-15T10:18:53;100507.22;;;13.02;100.00
5883;BME280;2967;51.488;6.618;2022-11-15T10:24:00;100489.09;;;13.07;100.00
5883;BME280;2967;51.488;6.618;2022-11-15T10:29:03;100480.19;;;13.19;100.00
5883;BME280;2967;51.488;6.618;2022-11-15T10:34:12;100473.66;;;13.23;100.00
5883;BME280;2967;51.488;6.618;2022-11-15T10:39:16;100473.28;;;13.27;100.00
5883;BME280;2967;51.488;6.618;2022-11-15T10:44:25;100458.66;;;13.33;100.00
5883;BME280;2967;51.488;6.618;2022-11-15T10:49:29;100363.97;;;12.90;100.00
5883;BME280;2967;51.488;6.618;2022-11-15T10:54:36;100446.91;;;13.46;100.00
5883;BME280;2967;51.488;6.618;2022-11-15T10:59:44;100440.50;;;13.49;100.00
5883;BME280;2967;51.488;6.618;2022-11-15T11:04:51;100407.22;;;13.34;100.00
5883;BME280;2967;51.488;6.618;2022-11-15T11:10:00;100439.97;;;13.55;100.00
5883;BME280;2967;51.488;6.618;2022-11-15T11:15:11;100430.91;;;13.57;100.00
5883;BME280;2967;51.488;6.618;2022-11-15T11:20:20;100425.09;;;13.63;100.00
5883;BME280;2967;51.488;6.618;2022-11-15T11:25:34;100435.09;;;13.71;100.00
5883;BME280;2967;51.488;6.618;2022-11-15T11:30:47;100389.50;;;13.55;100.00
5883;BME280;2967;51.488;6.618;2022-11-15T11:36:01;100420.56;;;13.75;100.00
5883;BME280;2967;51.488;6.618;2022-11-15T11:41:15;100412.00;;;13.71;100.00
5883;BME280;2967;51.488;6.618;2022-11-15T11:46:33;100376.72;;;13.49;100.00
5883;BME280;2967;51.488;6.618;2022-11-15T11:51:42;100412.47;;;13.76;100.00
5883;BME280;2967;51.488;6.618;2022-11-15T11:56:50;100404.97;;;14.02;100.00
5883;BME280;2967;51.488;6.618;2022-11-15T12:01:54;100397.97;;;14.01;100.00
5883;BME280;2967;51.488;6.618;2022-11-15T12:07:00;100370.66;;;13.78;100.00
5883;BME280;2967;51.488;6.618;2022-11-15T12:12:09;100383.06;;;13.89;100.00
5883;BME280;2967;51.488;6.618;2022-11-15T12:17:15;100380.63;;;13.86;100.00
5883;BME280;2967;51.488;6.618;2022-11-15T12:22:22;100363.13;;;13.83;100.00
5883;BME280;2967;51.488;6.618;2022-11-15T12:27:32;100329.94;;;13.78;100.00
5883;BME280;2967;51.488;6.618;2022-11-15T12:32:37;100348.59;;;13.87;99.73
5883;BME280;2967;51.488;6.618;2022-11-15T12:37:48;100307.81;;;13.77;98.50
5883;BME280;2967;51.488;6.618;2022-11-15T12:43:01;100331.75;;;13.98;97.29
5883;BME280;2967;51.488;6.618;2022-11-15T12:53:39;100298.78;;;14.10;94.38
5883;BME280;2967;51.488;6.618;2022-11-15T12:58:44;100294.16;;;14.12;94.94
5883;BME280;2967;51.488;6.618;2022-11-15T13:04:13;100270.22;;;14.12;93.71
5883;BME280;2967;51.488;6.618;2022-11-15T13:09:51;100267.03;;;14.18;92.89
5883;BME280;2967;51.488;6.618;2022-11-15T13:14:56;100265.69;;;14.23;91.67
5883;BME280;2967;51.488;6.618;2022-11-15T13:20:07;100264.38;;;14.18;92.97
5883;BME280;2967;51.488;6.618;2022-11-15T13:25:19;100250.81;;;14.21;92.61
5883;BME280;2967;51.488;6.618;2022-11-15T13:30:27;100210.53;;;14.05;92.93
5883;BME280;2967;51.488;6.618;2022-11-15T13:35:33;100242.69;;;14.22;94.14
5883;BME280;2967;51.488;6.618;2022-11-15T13:40:38;100233.88;;;14.22;95.10
5883;BME280;2967;51.488;6.618;2022-11-15T13:45:42;100217.06;;;14.21;96.46
5883;BME280;2967;51.488;6.618;2022-11-15T13:50:45;100198.91;;;14.26;97.74
5883;BME280;2967;51.488;6.618;2022-11-15T13:55:47;100193.16;;;14.31;96.84
5883;BME280;2967;51.488;6.618;2022-11-15T14:00:59;100191.78;;;14.36;97.04
5883;BME280;2967;51.488;6.618;2022-11-15T14:06:05;100185.59;;;14.36;96.52
5883;BME280;2967;51.488;6.618;2022-11-15T14:11:13;100173.16;;;14.36;97.79
5883;BME280;2967;51.488;6.618;2022-11-15T14:16:20;100169.38;;;14.39;98.72
5883;BME280;2967;51.488;6.618;2022-11-15T14:21:25;100168.25;;;14.41;98.15
5883;BME280;2967;51.488;6.618;2022-11-15T14:26:29;100152.56;;;14.48;98.40
5883;BME280;2967;51.488;6.618;2022-11-15T14:31:34;100144.16;;;14.43;98.96
5883;BME280;2967;51.488;6.618;2022-11-15T14:36:43;100142.47;;;14.42;99.92
5883;BME280;2967;51.488;6.618;2022-11-15T14:41:46;100130.16;;;14.41;98.97
5883;BME280;2967;51.488;6.618;2022-11-15T14:46:50;100124.97;;;14.39;99.14
5883;BME280;2967;51.488;6.618;2022-11-15T14:51:53;100129.59;;;14.37;99.78
5883;BME280;2967;51.488;6.618;2022-11-15T14:56:56;100122.72;;;14.35;99.66
5883;BME280;2967;51.488;6.618;2022-11-15T15:01:59;100111.38;;;14.33;100.00
5883;BME280;2967;51.488;6.618;2022-11-15T15:07:02;100103.41;;;14.33;100.00
5883;BME280;2967;51.488;6.618;2022-11-15T15:12:08;100091.09;;;14.32;100.00
5883;BME280;2967;51.488;6.618;2022-11-15T15:17:16;100088.13;;;14.35;100.00
5883;BME280;2967;51.488;6.618;2022-11-15T15:22:19;100083.53;;;14.27;100.00
5883;BME280;2967;51.488;6.618;2022-11-15T15:27:23;100071.19;;;14.26;100.00
5883;BME280;2967;51.488;6.618;2022-11-15T15:32:27;100062.66;;;14.23;100.00
5883;BME280;2967;51.488;6.618;2022-11-15T15:37:31;100061.28;;;14.19;100.00
5883;BME280;2967;51.488;6.618;2022-11-15T15:42:34;100047.09;;;14.09;100.00
5883;BME280;2967;51.488;6.618;2022-11-15T15:47:39;100047.78;;;14.11;100.00
5883;BME280;2967;51.488;6.618;2022-11-15T15:52:41;100042.88;;;14.06;100.00
5883;BME280;2967;51.488;6.618;2022-11-15T15:57:44;100045.38;;;14.08;100.00
5883;BME280;2967;51.488;6.618;2022-11-15T16:02:48;100028.31;;;14.10;100.00
5883;BME280;2967;51.488;6.618;2022-11-15T16:07:51;100024.41;;;14.05;100.00
5883;BME280;2967;51.488;6.618;2022-11-15T16:12:55;99986.75;;;13.81;100.00
5883;BME280;2967;51.488;6.618;2022-11-15T16:18:00;100007.47;;;14.06;100.00
5883;BME280;2967;51.488;6.618;2022-11-15T16:23:05;100005.50;;;14.08;100.00
5883;BME280;2967;51.488;6.618;2022-11-15T16:28:17;100005.50;;;14.08;100.00
5883;BME280;2967;51.488;6.618;2022-11-15T16:33:21;99979.03;;;13.97;100.00
5883;BME280;2967;51.488;6.618;2022-11-15T16:38:24;99983.97;;;14.11;100.00
5883;BME280;2967;51.488;6.618;2022-11-15T16:43:27;99981.69;;;14.16;100.00
5883;BME280;2967;51.488;6.618;2022-11-15T16:48:31;99973.31;;;14.11;100.00
5883;BME280;2967;51.488;6.618;2022-11-15T16:53:36;99969.38;;;14.15;100.00
5883;BME280;2967;51.488;6.618;2022-11-15T16:58:38;99970.38;;;14.14;100.00
5883;BME280;2967;51.488;6.618;2022-11-15T17:03:42;99959.34;;;14.09;100.00
5883;BME280;2967;51.488;6.618;2022-11-15T17:08:45;99934.69;;;13.97;100.00
5883;BME280;2967;51.488;6.618;2022-11-15T17:13:48;99974.00;;;14.13;100.00
5883;BME280;2967;51.488;6.618;2022-11-15T17:18:52;99978.34;;;14.14;100.00
5883;BME280;2967;51.488;6.618;2022-11-15T17:23:54;99955.00;;;13.98;100.00
5883;BME280;2967;51.488;6.618;2022-11-15T17:28:57;99987.31;;;14.13;100.00
5883;BME280;2967;51.488;6.618;2022-11-15T17:34:03;99965.34;;;14.11;100.00
5883;BME280;2967;51.488;6.618;2022-11-15T17:39:06;99961.56;;;14.13;100.00
5883;BME280;2967;51.488;6.618;2022-11-15T17:44:09;99977.25;;;14.26;100.00
5883;BME280;2967;51.488;6.618;2022-11-15T17:49:13;99952.91;;;14.21;100.00
5883;BME280;2967;51.488;6.618;2022-11-15T17:54:15;99971.66;;;14.29;100.00
5883;BME280;2967;51.488;6.618;2022-11-15T17:59:18;99958.78;;;14.24;100.00
5883;BME280;2967;51.488;6.618;2022-11-15T18:04:24;99953.69;;;14.50;100.00
5883;BME280;2967;51.488;6.618;2022-11-15T18:09:28;99953.09;;;14.65;100.00
5883;BME280;2967;51.488;6.618;2022-11-15T18:14:31;99942.19;;;14.59;100.00
5883;BME280;2967;51.488;6.618;2022-11-15T18:19:35;99930.28;;;14.53;100.00
5883;BME280;2967;51.488;6.618;2022-11-15T18:24:38;99926.25;;;14.40;100.00
5883;BME280;2967;51.488;6.618;2022-11-15T18:29:42;99924.84;;;14.36;100.00
5883;BME280;2967;51.488;6.618;2022-11-15T18:34:46;99925.44;;;14.30;100.00
5883;BME280;2967;51.488;6.618;2022-11-15T18:39:49;99924.03;;;14.26;100.00
5883;BME280;2967;51.488;6.618;2022-11-15T18:44:54;99915.50;;;14.22;100.00
5883;BME280;2967;51.488;6.618;2022-11-15T18:49:58;99900.97;;;14.07;100.00
5883;BME280;2967;51.488;6.618;2022-11-15T18:55:02;99909.66;;;14.00;100.00
5883;BME280;2967;51.488;6.618;2022-11-15T19:00:06;99910.63;;;13.99;100.00
5883;BME280;2967;51.488;6.618;2022-11-15T19:05:11;99900.69;;;14.01;100.00
5883;BME280;2967;51.488;6.618;2022-11-15T19:10:16;99902.38;;;13.92;100.00
5883;BME280;2967;51.488;6.618;2022-11-15T19:15:18;99892.19;;;13.88;100.00
5883;BME280;2967;51.488;6.618;2022-11-15T19:20:22;99888.69;;;13.78;100.00
5883;BME280;2967;51.488;6.618;2022-11-15T19:25:25;99892.03;;;13.80;100.00
5883;BME280;2967;51.488;6.618;2022-11-15T19:36:21;99889.66;;;13.67;100.00
5883;BME280;2967;51.488;6.618;2022-11-15T19:41:25;99888.53;;;13.60;100.00
5883;BME280;2967;51.488;6.618;2022-11-15T19:46:27;99891.06;;;13.62;100.00
5883;BME280;2967;51.488;6.618;2022-11-15T19:51:31;99891.06;;;13.62;100.00
5883;BME280;2967;51.488;6.618;2022-11-15T19:56:35;99878.19;;;13.57;100.00
5883;BME280;2967;51.488;6.618;2022-11-15T20:01:38;99883.81;;;13.54;100.00
5883;BME280;2967;51.488;6.618;2022-11-15T20:06:42;99873.44;;;13.51;100.00
5883;BME280;2967;51.488;6.618;2022-11-15T20:11:45;99863.66;;;13.52;100.00
5883;BME280;2967;51.488;6.618;2022-11-15T20:16:48;99864.22;;;13.46;100.00
5883;BME280;2967;51.488;6.618;2022-11-15T20:21:56;99861.41;;;13.47;100.00
5883;BME280;2967;51.488;6.618;2022-11-15T20:26:59;99857.50;;;13.42;100.00
5883;BME280;2967;51.488;6.618;2022-11-15T20:32:02;99850.94;;;13.36;100.00
5883;BME280;2967;51.488;6.618;2022-11-15T20:37:07;99833.03;;;13.29;100.00
5883;BME280;2967;51.488;6.618;2022-11-15T20:42:09;99841.28;;;13.35;100.00
5883;BME280;2967;51.488;6.618;2022-11-15T20:47:12;99841.72;;;13.31;100.00
5883;BME280;2967;51.488;6.618;2022-11-15T20:52:16;99837.63;;;13.65;100.00
5883;BME280;2967;51.488;6.618;2022-11-15T20:57:18;99834.22;;;14.01;100.00
5883;BME280;2967;51.488;6.618;2022-11-15T21:02:21;99821.78;;;13.92;100.00
5883;BME280;2967;51.488;6.618;2022-11-15T21:07:26;99826.59;;;13.79;100.00
5883;BME280;2967;51.488;6.618;2022-11-15T21:12:29;99808.56;;;13.54;100.00
5883;BME280;2967;51.488;6.618;2022-11-15T21:17:33;99813.47;;;13.49;100.00
5883;BME280;2967;51.488;6.618;2022-11-15T21:22:37;99810.09;;;13.47;100.00
5883;BME280;2967;51.488;6.618;2022-11-15T21:27:39;99805.06;;;13.44;100.00
5883;BME280;2967;51.488;6.618;2022-11-15T21:32:43;99802.84;;;13.39;100.00
5883;BME280;2967;51.488;6.618;2022-11-15T21:37:47;99794.31;;;13.45;100.00
5883;BME280;2967;51.488;6.618;2022-11-15T21:42:57;99794.31;;;13.36;100.00
5883;BME280;2967;51.488;6.618;2022-11-15T21:47:59;99781.31;;;13.33;100.00
5883;BME280;2967;51.488;6.618;2022-11-15T21:53:03;99777.53;;;13.26;100.00
5883;BME280;2967;51.488;6.618;2022-11-15T21:58:06;99773.38;;;13.23;100.00
5883;BME280;2967;51.488;6.618;2022-11-15T22:03:10;99770.72;;;13.23;100.00
5883;BME280;2967;51.488;6.618;2022-11-15T22:08:14;99760.91;;;13.24;100.00
5883;BME280;2967;51.488;6.618;2022-11-15T22:13:17;99764.25;;;13.26;100.00
5883;BME280;2967;51.488;6.618;2022-11-15T22:18:21;99758.53;;;13.21;100.00
5883;BME280;2967;51.488;6.618;2022-11-15T22:23:29;99749.88;;;13.19;100.00
5883;BME280;2967;51.488;6.618;2022-11-15T22:28:33;99750.28;;;13.24;100.00
5883;BME280;2967;51.488;6.618;2022-11-15T22:33:36;99743.31;;;13.23;100.00
5883;BME280;2967;51.488;6.618;2022-11-15T22:38:41;99743.72;;;13.28;100.00
5883;BME280;2967;51.488;6.618;2022-11-15T22:43:43;99736.47;;;13.30;100.00
5883;BME280;2967;51.488;6.618;2022-11-15T22:48:50;99733.38;;;13.25;100.00
5883;BME280;2967;51.488;6.618;2022-11-15T22:53:54;99715.19;;;13.20;100.00
5883;BME280;2967;51.488;6.618;2022-11-15T22:58:57;99716.75;;;13.23;100.00
5883;BME280;2967;51.488;6.618;2022-11-15T23:03:59;99719.41;;;13.23;100.00
5883;BME280;2967;51.488;6.618;2022-11-15T23:09:03;99711.56;;;13.21;100.00
5883;BME280;2967;51.488;6.618;2022-11-15T23:14:06;99704.44;;;13.22;100.00
5883;BME280;2967;51.488;6.618;2022-11-15T23:19:10;99693.69;;;13.23;100.00
5883;BME280;2967;51.488;6.618;2022-11-15T23:24:15;99686.69;;;13.22;100.00
5883;BME280;2967;51.488;6.618;2022-11-15T23:29:19;99684.19;;;13.21;100.00
5883;BME280;2967;51.488;6.618;2022-11-15T23:34:23;99605.56;;;12.63;100.00
5883;BME280;2967;51.488;6.618;2022-11-15T23:39:27;99679.44;;;13.15;100.00
5883;BME280;2967;51.488;6.618;2022-11-15T23:44:30;99667.28;;;13.13;100.00
5883;BME280;2967;51.488;6.618;2022-11-15T23:49:33;99647.47;;;12.98;100.00
5883;BME280;2967;51.488;6.618;2022-11-15T23:54:37;99667.16;;;13.14;100.00
5883;BME280;2967;51.488;6.618;2022-11-15T23:59:40;99668.00;;;13.15;100.00
